Time,TemperatureF,DewpointF,PressureIn,WindDirection,WindDirectionDegrees,WindSpeedMPH,WindSpeedGustMPH,Humidity,HourlyPrecipIn,Conditions,Clouds,dailyrainin,SoftwareType,DateUTC
2013-10-22 00:00:00,30.9,27.8,29.85,NW,315,0.0,5.0,88,0.00,,SKC,0.01,VWS V14.01,2013-10-22 05:00:00,
2013-10-22 00:06:00,30.8,27.7,29.85,NW,315,0.0,4.0,88,0.00,,SKC,0.00,VWS V14.01,2013-10-22 05:06:00,
2013-10-22 00:11:00,30.7,27.6,29.85,NW,315,0.0,7.0,88,0.00,,SKC,0.00,VWS V14.01,2013-10-22 05:11:00,
2013-10-22 00:16:00,30.7,27.6,29.85,NW,315,0.0,7.0,88,0.00,,SKC,0.00,VWS V14.01,2013-10-22 05:16:00,
2013-10-22 00:21:00,30.7,27.6,29.85,NW,315,0.0,7.0,88,0.00,,SKC,0.00,VWS V14.01,2013-10-22 05:21:00,
2013-10-22 00:26:00,30.6,27.5,29.85,NW,315,1.0,7.0,88,0.00,,SKC,0.00,VWS V14.01,2013-10-22 05:26:00,
2013-10-22 00:30:00,31.0,27.3,29.85,NW,315,0.0,8.0,86,0.00,,SKC,0.01,VWS V14.01,2013-10-22 05:30:00,
2013-10-22 00:31:00,30.6,27.8,29.84,NW,315,4.0,4.0,89,0.00,,SKC,0.00,VWS V14.01,2013-10-22 05:31:00,
2013-10-22 00:36:00,30.6,27.5,29.84,NW,315,0.0,4.0,88,0.00,,SKC,0.00,VWS V14.01,2013-10-22 05:36:00,
2013-10-22 00:41:00,30.5,27.4,29.85,NW,315,0.0,4.0,88,0.00,,SKC,0.00,VWS V14.01,2013-10-22 05:41:00,
2013-10-22 00:46:00,30.4,27.5,29.85,NW,315,0.0,5.0,89,0.00,,SKC,0.00,VWS V14.01,2013-10-22 05:46:00,
2013-10-22 00:51:00,30.3,27.5,29.85,NW,315,0.0,5.0,89,0.00,,SKC,0.00,VWS V14.01,2013-10-22 05:51:00,
2013-10-22 00:56:00,30.3,27.5,29.85,NW,315,0.0,5.0,89,0.00,,SKC,0.00,VWS V14.01,2013-10-22 05:56:00,
2013-10-22 01:00:00,30.9,27.8,29.85,NW,315,0.0,5.0,88,0.00,,SKC,0.01,VWS V14.01,2013-10-22 06:00:00,
2013-10-22 01:01:00,30.2,27.4,29.85,NW,315,0.0,0.0,89,0.00,,SKC,0.00,VWS V14.01,2013-10-22 06:01:00,
2013-10-22 01:07:00,30.1,27.3,29.85,NW,315,0.0,0.0,89,0.00,,SKC,0.00,VWS V14.01,2013-10-22 06:07:00,
2013-10-22 01:12:00,30.1,27.5,29.85,NW,315,0.0,2.0,90,0.00,,SKC,0.00,VWS V14.01,2013-10-22 06:12:00,
2013-10-22 01:17:00,30.1,27.5,29.85,NW,315,0.0,2.0,90,0.00,,SKC,0.00,VWS V14.01,2013-10-22 06:17:00,
2013-10-22 01:22:00,30.0,27.4,29.85,NW,315,0.0,2.0,90,0.00,,SKC,0.00,VWS V14.01,2013-10-22 06:22:00,
2013-10-22 01:27:00,30.0,27.4,29.85,NW,315,0.0,2.0,90,0.00,,SKC,0.00,VWS V14.01,2013-10-22 06:27:00,
2013-10-22 01:30:00,30.6,27.8,29.84,NW,315,0.0,7.0,89,0.00,,SKC,0.00,VWS V14.01,2013-10-22 06:30:00,
2013-10-22 01:32:00,30.0,27.4,29.85,NW,315,0.0,4.0,90,0.00,,SKC,0.00,VWS V14.01,2013-10-22 06:32:00,
2013-10-22 01:37:00,30.1,27.8,29.85,NW,314,0.0,4.0,91,0.00,,SKC,0.00,VWS V14.01,2013-10-22 06:37:00,
2013-10-22 01:42:00,30.1,27.5,29.85,NW,314,0.0,5.0,90,0.00,,SKC,0.00,VWS V14.01,2013-10-22 06:42:00,
2013-10-22 01:47:00,30.0,27.4,29.85,NW,314,0.0,5.0,90,0.00,,SKC,0.00,VWS V14.01,2013-10-22 06:47:00,
2013-10-22 01:52:00,29.9,27.3,29.86,NW,314,0.0,5.0,90,0.00,,SKC,0.00,VWS V14.01,2013-10-22 06:52:00,
2013-10-22 01:57:00,29.8,27.2,29.86,NW,314,0.0,5.0,90,0.00,,SKC,0.00,VWS V14.01,2013-10-22 06:57:00,
2013-10-22 02:00:00,30.2,27.4,29.85,NW,315,0.0,5.0,89,0.00,,SKC,0.00,VWS V14.01,2013-10-22 07:00:00,
2013-10-22 02:02:00,29.8,27.2,29.86,NW,314,0.0,0.0,90,0.00,,SKC,0.00,VWS V14.01,2013-10-22 07:02:00,
2013-10-22 02:07:00,29.7,27.4,29.86,NW,314,0.0,5.0,91,0.00,,SKC,0.00,VWS V14.01,2013-10-22 07:07:00,
2013-10-22 02:12:00,29.7,27.4,29.86,NW,314,0.0,5.0,91,0.00,,SKC,0.00,VWS V14.01,2013-10-22 07:12:00,
2013-10-22 02:17:00,29.6,27.3,29.86,NW,314,0.0,5.0,91,0.00,,SKC,0.00,VWS V14.01,2013-10-22 07:17:00,
2013-10-22 02:22:00,29.6,27.3,29.86,NW,314,0.0,5.0,91,0.00,,SKC,0.00,VWS V14.01,2013-10-22 07:22:00,
2013-10-22 02:27:00,29.4,27.1,29.86,NW,314,0.0,5.0,91,0.00,,SKC,0.00,VWS V14.01,2013-10-22 07:27:00,
2013-10-22 02:30:00,30.0,27.4,29.85,NW,315,0.0,3.0,90,0.00,,SKC,0.00,VWS V14.01,2013-10-22 07:30:00,
2013-10-22 02:32:00,29.4,27.1,29.86,NW,314,0.0,5.0,91,0.00,,SKC,0.00,VWS V14.01,2013-10-22 07:32:00,
2013-10-22 02:37:00,29.3,27.0,29.86,NW,314,0.0,5.0,91,0.00,,SKC,0.00,VWS V14.01,2013-10-22 07:37:00,
2013-10-22 02:42:00,29.4,27.1,29.87,NW,314,0.0,5.0,91,0.00,,SKC,0.00,VWS V14.01,2013-10-22 07:42:00,
2013-10-22 02:47:00,29.3,27.3,29.86,NW,314,0.0,5.0,92,0.00,,SKC,0.00,VWS V14.01,2013-10-22 07:47:00,
2013-10-22 02:52:00,29.4,27.4,29.86,NW,314,0.0,5.0,92,0.00,,SKC,0.00,VWS V14.01,2013-10-22 07:52:00,
2013-10-22 02:57:00,29.4,27.4,29.86,NW,314,0.0,5.0,92,0.00,,SKC,0.00,VWS V14.01,2013-10-22 07:57:00,
2013-10-22 03:00:00,29.8,27.2,29.86,NW,314,0.0,6.0,90,0.00,,SKC,0.00,VWS V14.01,2013-10-22 08:00:00,
2013-10-22 03:02:00,29.5,27.5,29.86,NW,314,0.0,0.0,92,0.00,,SKC,0.00,VWS V14.01,2013-10-22 08:02:00,
2013-10-22 03:07:00,29.6,27.6,29.86,NW,314,0.0,3.0,92,0.00,,SKC,0.00,VWS V14.01,2013-10-22 08:07:00,
2013-10-22 03:12:00,29.7,27.7,29.86,NW,314,0.0,6.0,92,0.00,,SKC,0.00,VWS V14.01,2013-10-22 08:12:00,
2013-10-22 03:17:00,29.8,27.8,29.86,NW,314,0.0,6.0,92,0.00,,SKC,0.00,VWS V14.01,2013-10-22 08:17:00,
2013-10-22 03:22:00,29.9,27.9,29.86,NW,314,0.0,6.0,92,0.00,,SKC,0.00,VWS V14.01,2013-10-22 08:22:00,
2013-10-22 03:27:00,30.1,28.1,29.86,NW,314,0.0,6.0,92,0.00,,SKC,0.00,VWS V14.01,2013-10-22 08:27:00,
2013-10-22 03:30:00,29.4,27.1,29.86,NW,314,0.0,5.0,91,0.00,,SKC,0.00,VWS V14.01,2013-10-22 08:30:00,
2013-10-22 03:33:00,30.2,28.2,29.86,NW,314,0.0,4.0,92,0.00,,SKC,0.00,VWS V14.01,2013-10-22 08:33:00,
2013-10-22 03:38:00,30.5,28.5,29.86,NW,314,0.0,4.0,92,0.00,,SKC,0.00,VWS V14.01,2013-10-22 08:38:00,
2013-10-22 03:43:00,30.7,28.7,29.86,NW,314,0.0,4.0,92,0.00,,SKC,0.00,VWS V14.01,2013-10-22 08:43:00,
2013-10-22 03:48:00,30.9,28.9,29.86,NW,314,0.0,4.0,92,0.00,,SKC,0.00,VWS V14.01,2013-10-22 08:48:00,
2013-10-22 03:53:00,31.0,29.0,29.86,NW,314,0.0,4.0,92,0.00,,SKC,0.00,VWS V14.01,2013-10-22 08:53:00,
2013-10-22 03:58:00,31.1,29.0,29.86,NW,313,0.0,5.0,92,0.00,,SKC,0.00,VWS V14.01,2013-10-22 08:58:00,
2013-10-22 04:00:00,29.5,27.5,29.86,NW,314,0.0,5.0,92,0.00,,SKC,0.00,VWS V14.01,2013-10-22 09:00:00,
2013-10-22 04:03:00,31.1,28.8,29.86,NW,312,0.0,2.0,91,0.00,,SKC,0.00,VWS V14.01,2013-10-22 09:03:00,
2013-10-22 04:08:00,31.2,28.9,29.86,NW,312,0.0,5.0,91,0.00,,SKC,0.00,VWS V14.01,2013-10-22 09:08:00,
2013-10-22 04:13:00,31.2,28.9,29.86,NW,312,0.0,5.0,91,0.00,,SKC,0.00,VWS V14.01,2013-10-22 09:13:00,
2013-10-22 04:18:00,31.3,29.0,29.86,NW,312,0.0,5.0,91,0.00,,SKC,0.00,VWS V14.01,2013-10-22 09:18:00,
2013-10-22 04:23:00,31.3,29.0,29.86,NW,312,0.0,6.0,91,0.00,,SKC,0.00,VWS V14.01,2013-10-22 09:23:00,
2013-10-22 04:28:00,31.4,29.1,29.86,NW,312,0.0,6.0,91,0.00,,SKC,0.00,VWS V14.01,2013-10-22 09:28:00,
2013-10-22 04:30:00,30.2,28.2,29.86,NW,314,0.0,6.0,92,0.00,,SKC,0.00,VWS V14.01,2013-10-22 09:30:00,
2013-10-22 04:33:00,31.4,29.1,29.86,NW,312,0.0,0.0,91,0.00,,SKC,0.00,VWS V14.01,2013-10-22 09:33:00,
2013-10-22 04:38:00,31.4,29.1,29.86,NW,312,0.0,5.0,91,0.00,,SKC,0.00,VWS V14.01,2013-10-22 09:38:00,
2013-10-22 04:43:00,31.5,29.2,29.86,NW,312,0.0,5.0,91,0.00,,SKC,0.00,VWS V14.01,2013-10-22 09:43:00,
2013-10-22 04:48:00,31.5,29.2,29.86,NW,312,0.0,5.0,91,0.00,,SKC,0.00,VWS V14.01,2013-10-22 09:48:00,
2013-10-22 04:53:00,31.6,29.3,29.86,NW,312,0.0,5.0,91,0.00,,SKC,0.00,VWS V14.01,2013-10-22 09:53:00,
2013-10-22 04:58:00,31.6,29.3,29.86,NW,312,0.0,5.0,91,0.00,,SKC,0.00,VWS V14.01,2013-10-22 09:58:00,
2013-10-22 05:00:00,31.1,28.8,29.86,NW,312,1.0,7.0,91,0.00,,SKC,0.00,VWS V14.01,2013-10-22 10:00:00,
2013-10-22 05:03:00,31.7,29.4,29.86,NW,312,0.0,0.0,91,0.00,,SKC,0.00,VWS V14.01,2013-10-22 10:03:00,
2013-10-22 05:08:00,31.7,29.4,29.86,NW,312,0.0,1.0,91,0.00,,SKC,0.00,VWS V14.01,2013-10-22 10:08:00,
2013-10-22 05:13:00,31.7,29.4,29.86,NW,312,0.0,2.0,91,0.00,,SKC,0.00,VWS V14.01,2013-10-22 10:13:00,
2013-10-22 05:18:00,31.7,29.4,29.86,NW,312,0.0,2.0,91,0.00,,SKC,0.00,VWS V14.01,2013-10-22 10:18:00,
2013-10-22 05:24:00,31.7,29.4,29.86,NW,312,3.0,3.0,91,0.00,,SKC,0.00,VWS V14.01,2013-10-22 10:24:00,
2013-10-22 05:29:00,31.7,29.4,29.86,NW,312,0.0,3.0,91,0.00,,SKC,0.00,VWS V14.01,2013-10-22 10:29:00,
2013-10-22 05:30:00,31.4,29.1,29.86,NW,312,0.0,6.0,91,0.00,,SKC,0.00,VWS V14.01,2013-10-22 10:30:00,
2013-10-22 05:34:00,31.7,29.4,29.86,NW,312,0.0,0.0,91,0.00,,SKC,0.00,VWS V14.01,2013-10-22 10:34:00,
2013-10-22 05:39:00,31.7,29.4,29.87,NW,312,0.0,5.0,91,0.00,,SKC,0.00,VWS V14.01,2013-10-22 10:39:00,
2013-10-22 05:44:00,31.7,29.4,29.87,NW,312,0.0,5.0,91,0.00,,SKC,0.00,VWS V14.01,2013-10-22 10:44:00,
2013-10-22 05:49:00,31.7,29.4,29.87,NW,312,0.0,5.0,91,0.00,,SKC,0.00,VWS V14.01,2013-10-22 10:49:00,
2013-10-22 05:54:00,31.7,29.4,29.87,NW,312,0.0,5.0,91,0.00,,SKC,0.00,VWS V14.01,2013-10-22 10:54:00,
2013-10-22 05:59:00,31.9,29.6,29.87,NW,312,0.0,5.0,91,0.00,,SKC,0.00,VWS V14.01,2013-10-22 10:59:00,
2013-10-22 06:00:00,31.6,29.3,29.86,NW,312,0.0,5.0,91,0.00,,SKC,0.00,VWS V14.01,2013-10-22 11:00:00,
2013-10-22 06:04:00,31.9,29.6,29.87,NW,312,0.0,0.0,91,0.00,,SKC,0.00,VWS V14.01,2013-10-22 11:04:00,
2013-10-22 06:09:00,31.9,29.6,29.87,NW,312,0.0,0.0,91,0.00,,SKC,0.00,VWS V14.01,2013-10-22 11:09:00,
2013-10-22 06:14:00,31.9,29.6,29.87,NW,312,0.0,0.0,91,0.00,,SKC,0.00,VWS V14.01,2013-10-22 11:14:00,
2013-10-22 06:19:00,32.0,29.7,29.87,NW,312,0.0,0.0,91,0.00,,SKC,0.00,VWS V14.01,2013-10-22 11:19:00,
2013-10-22 06:24:00,31.9,29.6,29.88,NW,312,0.0,0.0,91,0.00,,SKC,0.00,VWS V14.01,2013-10-22 11:24:00,
2013-10-22 06:29:00,31.9,29.6,29.88,NW,312,0.0,0.0,91,0.00,,SKC,0.00,VWS V14.01,2013-10-22 11:29:00,
2013-10-22 06:30:00,31.7,29.4,29.86,NW,312,0.0,3.0,91,0.00,,SKC,0.00,VWS V14.01,2013-10-22 11:30:00,
2013-10-22 06:34:00,31.9,29.6,29.88,NW,312,0.0,0.0,91,0.00,,SKC,0.00,VWS V14.01,2013-10-22 11:34:00,
2013-10-22 06:39:00,31.9,29.6,29.88,NW,312,0.0,0.0,91,0.00,,SKC,0.00,VWS V14.01,2013-10-22 11:39:00,
2013-10-22 06:44:00,31.8,29.5,29.88,NW,312,0.0,0.0,91,0.00,,SKC,0.00,VWS V14.01,2013-10-22 11:44:00,
2013-10-22 06:49:00,31.8,29.5,29.88,NW,312,0.0,0.0,91,0.00,,SKC,0.00,VWS V14.01,2013-10-22 11:49:00,
2013-10-22 06:54:00,31.7,29.4,29.88,NW,312,0.0,0.0,91,0.00,,SKC,0.00,VWS V14.01,2013-10-22 11:54:00,
2013-10-22 06:59:00,31.7,29.4,29.88,NW,312,0.0,0.0,91,0.00,,SKC,0.00,VWS V14.01,2013-10-22 11:59:00,
2013-10-22 07:00:00,31.9,29.6,29.87,NW,312,0.0,5.0,91,0.00,,SKC,0.00,VWS V14.01,2013-10-22 12:00:00,
2013-10-22 07:04:00,31.6,29.3,29.88,NW,312,0.0,0.0,91,0.00,,SKC,0.00,VWS V14.01,2013-10-22 12:04:00,
2013-10-22 07:09:00,31.6,29.3,29.88,NW,312,0.0,0.0,91,0.00,,SKC,0.00,VWS V14.01,2013-10-22 12:09:00,
2013-10-22 07:14:00,31.6,29.3,29.88,NW,312,0.0,0.0,91,0.00,,SKC,0.00,VWS V14.01,2013-10-22 12:14:00,
2013-10-22 07:19:00,31.6,29.3,29.88,NW,312,0.0,0.0,91,0.00,,SKC,0.00,VWS V14.01,2013-10-22 12:19:00,
2013-10-22 07:24:00,31.6,29.3,29.88,NW,312,0.0,0.0,91,0.00,,SKC,0.00,VWS V14.01,2013-10-22 12:24:00,
2013-10-22 07:29:00,31.6,29.3,29.88,NW,312,0.0,0.0,91,0.00,,SKC,0.00,VWS V14.01,2013-10-22 12:29:00,
2013-10-22 07:30:00,31.9,29.6,29.88,NW,312,0.0,0.0,91,0.00,,SKC,0.00,VWS V14.01,2013-10-22 12:30:00,
2013-10-22 07:34:00,31.5,29.2,29.89,NW,312,0.0,1.0,91,0.00,,SKC,0.00,VWS V14.01,2013-10-22 12:34:00,
2013-10-22 07:39:00,31.5,29.2,29.89,NW,312,0.0,1.0,91,0.00,,SKC,0.00,VWS V14.01,2013-10-22 12:39:00,
2013-10-22 07:44:00,31.4,29.1,29.89,NW,312,0.0,1.0,91,0.00,,SKC,0.00,VWS V14.01,2013-10-22 12:44:00,
2013-10-22 07:50:00,31.5,29.5,29.89,NW,312,0.0,1.0,92,0.00,,SKC,0.00,VWS V14.01,2013-10-22 12:50:00,
2013-10-22 07:55:00,31.5,29.5,29.89,NW,312,0.0,1.0,92,0.00,,SKC,0.00,VWS V14.01,2013-10-22 12:55:00,
2013-10-22 08:00:00,31.6,29.5,29.89,NW,312,0.0,1.0,92,0.00,,SKC,0.00,VWS V14.01,2013-10-22 13:00:00,
2013-10-22 08:05:00,31.7,29.6,29.89,NW,312,0.0,0.0,92,0.00,,SKC,0.00,VWS V14.01,2013-10-22 13:05:00,
2013-10-22 08:10:00,31.8,29.8,29.89,NW,312,0.0,0.0,92,0.00,,SKC,0.00,VWS V14.01,2013-10-22 13:10:00,
2013-10-22 08:15:00,31.9,29.8,29.90,NW,312,0.0,0.0,92,0.00,,SKC,0.00,VWS V14.01,2013-10-22 13:15:00,
2013-10-22 08:20:00,31.9,29.8,29.90,NW,312,0.0,0.0,92,0.00,,SKC,0.00,VWS V14.01,2013-10-22 13:20:00,
2013-10-22 08:25:00,32.0,29.9,29.90,NW,312,0.0,0.0,92,0.00,,SKC,0.00,VWS V14.01,2013-10-22 13:25:00,
2013-10-22 08:30:00,32.0,29.9,29.90,NW,312,0.0,0.0,92,0.00,,SKC,0.00,VWS V14.01,2013-10-22 13:30:00,
2013-10-22 08:35:00,32.1,30.0,29.90,NW,312,0.0,2.0,92,0.00,,SKC,0.00,VWS V14.01,2013-10-22 13:35:00,
2013-10-22 08:40:00,32.3,30.0,29.90,NW,312,0.0,2.0,91,0.00,,SKC,0.00,VWS V14.01,2013-10-22 13:40:00,
2013-10-22 08:45:00,32.4,30.1,29.90,NW,312,0.0,2.0,91,0.00,,SKC,0.00,VWS V14.01,2013-10-22 13:45:00,
2013-10-22 08:50:00,32.6,30.3,29.90,NW,312,0.0,2.0,91,0.00,,SKC,0.00,VWS V14.01,2013-10-22 13:50:00,
2013-10-22 08:55:00,32.7,30.1,29.90,NW,312,0.0,2.0,90,0.00,,SKC,0.00,VWS V14.01,2013-10-22 13:55:00,
2013-10-22 09:00:00,32.8,30.2,29.90,NW,312,0.0,2.0,90,0.00,,SKC,0.00,VWS V14.01,2013-10-22 14:00:00,
2013-10-22 09:05:00,33.0,30.4,29.90,NW,312,0.0,0.0,90,0.00,,SKC,0.00,VWS V14.01,2013-10-22 14:05:00,
2013-10-22 09:11:00,33.2,30.6,29.90,NW,312,0.0,1.0,90,0.00,,SKC,0.00,VWS V14.01,2013-10-22 14:11:00,
2013-10-22 09:16:00,33.3,30.7,29.90,NW,312,0.0,1.0,90,0.00,,SKC,0.00,VWS V14.01,2013-10-22 14:16:00,
2013-10-22 09:21:00,33.6,31.0,29.91,NW,312,0.0,1.0,90,0.00,,SKC,0.00,VWS V14.01,2013-10-22 14:21:00,
2013-10-22 09:26:00,33.8,31.2,29.91,NW,312,0.0,1.0,90,0.00,,SKC,0.00,VWS V14.01,2013-10-22 14:26:00,
2013-10-22 09:30:00,32.0,29.9,29.90,NW,312,0.0,0.0,92,0.00,,SKC,0.00,VWS V14.01,2013-10-22 14:30:00,
2013-10-22 09:31:00,34.0,30.8,29.91,NW,312,0.0,0.0,88,0.00,,SKC,0.00,VWS V14.01,2013-10-22 14:31:00,
2013-10-22 09:36:00,34.2,30.7,29.91,NW,312,0.0,1.0,87,0.00,,SKC,0.00,VWS V14.01,2013-10-22 14:36:00,
2013-10-22 09:41:00,34.4,30.9,29.91,NW,312,0.0,1.0,87,0.00,,SKC,0.00,VWS V14.01,2013-10-22 14:41:00,
2013-10-22 09:47:00,34.4,30.6,29.91,NW,312,0.0,1.0,86,0.00,,SKC,0.00,VWS V14.01,2013-10-22 14:47:00,
2013-10-22 09:52:00,34.7,30.7,29.91,NW,312,0.0,1.0,85,0.00,,SKC,0.00,VWS V14.01,2013-10-22 14:52:00,
2013-10-22 09:57:00,34.9,30.6,29.91,NW,324,0.0,8.0,84,0.00,,SKC,0.00,VWS V14.01,2013-10-22 14:57:00,
2013-10-22 10:00:00,32.9,30.3,29.90,NW,312,0.0,2.0,90,0.00,,SKC,0.00,VWS V14.01,2013-10-22 15:00:00,
2013-10-22 10:02:00,35.1,30.8,29.91,NNW,327,0.0,0.0,84,0.00,,SKC,0.00,VWS V14.01,2013-10-22 15:02:00,
2013-10-22 10:07:00,35.3,30.7,29.91,NNW,327,4.0,5.0,83,0.00,,SKC,0.00,VWS V14.01,2013-10-22 15:07:00,
2013-10-22 10:12:00,35.4,30.5,29.91,NNW,329,0.0,6.0,82,0.00,,SKC,0.00,VWS V14.01,2013-10-22 15:12:00,
2013-10-22 10:17:00,35.6,30.7,29.91,NNW,334,0.0,6.0,82,0.00,,SKC,0.00,VWS V14.01,2013-10-22 15:17:00,
2013-10-22 10:22:00,35.7,30.5,29.91,NNW,334,0.0,6.0,81,0.00,,SKC,0.00,VWS V14.01,2013-10-22 15:22:00,
2013-10-22 10:27:00,35.9,30.6,29.91,NNW,334,0.0,6.0,81,0.00,,SKC,0.00,VWS V14.01,2013-10-22 15:27:00,
2013-10-22 10:30:00,34.0,31.1,29.91,NW,312,0.0,1.0,89,0.00,,SKC,0.00,VWS V14.01,2013-10-22 15:30:00,
2013-10-22 10:32:00,36.0,30.4,29.91,NNW,337,2.0,8.0,80,0.00,,SKC,0.00,VWS V14.01,2013-10-22 15:32:00,
2013-10-22 10:37:00,36.2,30.9,29.91,NNW,337,4.0,8.0,81,0.00,,SKC,0.00,VWS V14.01,2013-10-22 15:37:00,
2013-10-22 10:42:00,36.2,30.0,29.91,NNW,337,1.0,8.0,78,0.00,,SKC,0.00,VWS V14.01,2013-10-22 15:42:00,
2013-10-22 10:47:00,36.4,30.5,29.91,NNW,337,0.0,8.0,79,0.00,,SKC,0.00,VWS V14.01,2013-10-22 15:47:00,
2013-10-22 10:52:00,36.5,30.9,29.91,NNW,337,0.0,8.0,80,0.00,,SKC,0.00,VWS V14.01,2013-10-22 15:52:00,
2013-10-22 10:57:00,36.8,31.2,29.91,NNW,337,0.0,8.0,80,0.00,,SKC,0.00,VWS V14.01,2013-10-22 15:57:00,
2013-10-22 11:00:00,35.1,30.8,29.91,NNW,327,0.0,8.0,84,0.00,,SKC,0.00,VWS V14.01,2013-10-22 16:00:00,
2013-10-22 11:02:00,36.9,31.0,29.91,NNW,337,0.0,0.0,79,0.00,,SKC,0.00,VWS V14.01,2013-10-22 16:02:00,
2013-10-22 11:07:00,37.0,30.8,29.91,NNW,337,2.0,2.0,78,0.00,,SKC,0.00,VWS V14.01,2013-10-22 16:07:00,
2013-10-22 11:12:00,37.1,30.9,29.91,NNW,337,0.0,2.0,78,0.00,,SKC,0.00,VWS V14.01,2013-10-22 16:12:00,
2013-10-22 11:17:00,37.1,31.2,29.91,NNW,337,0.0,4.0,79,0.00,,SKC,0.00,VWS V14.01,2013-10-22 16:17:00,
2013-10-22 11:22:00,37.2,31.6,29.91,NNW,337,0.0,4.0,80,0.00,,SKC,0.00,VWS V14.01,2013-10-22 16:22:00,
2013-10-22 11:27:00,37.3,31.7,29.91,NNW,337,0.0,4.0,80,0.00,,SKC,0.00,VWS V14.01,2013-10-22 16:27:00,
2013-10-22 11:30:00,36.0,30.4,29.91,NNW,334,1.0,6.0,80,0.00,,SKC,0.00,VWS V14.01,2013-10-22 16:30:00,
2013-10-22 11:32:00,37.5,32.2,29.91,NNW,337,2.0,4.0,81,0.00,,SKC,0.00,VWS V14.01,2013-10-22 16:32:00,
2013-10-22 11:38:00,37.5,31.9,29.91,NNW,337,0.0,4.0,80,0.00,,SKC,0.00,VWS V14.01,2013-10-22 16:38:00,
2013-10-22 11:43:00,37.4,31.8,29.91,NNW,337,0.0,4.0,80,0.00,,SKC,0.00,VWS V14.01,2013-10-22 16:43:00,
2013-10-22 11:48:00,37.6,32.0,29.92,NNW,337,4.0,6.0,80,0.00,,SKC,0.00,VWS V14.01,2013-10-22 16:48:00,
2013-10-22 11:53:00,37.7,31.8,29.92,NNW,336,1.0,6.0,79,0.00,,SKC,0.00,VWS V14.01,2013-10-22 16:53:00,
2013-10-22 11:58:00,37.9,32.0,29.91,NNW,329,4.0,6.0,79,0.00,,SKC,0.00,VWS V14.01,2013-10-22 16:58:00,
2013-10-22 12:00:00,36.9,31.0,29.91,NNW,337,0.0,8.0,79,0.00,,SKC,0.00,VWS V14.01,2013-10-22 17:00:00,
2013-10-22 12:03:00,38.1,32.5,29.91,NW,315,2.0,5.0,80,0.00,,SKC,0.00,VWS V14.01,2013-10-22 17:03:00,
2013-10-22 12:08:00,38.1,31.9,29.91,NW,315,0.0,5.0,78,0.00,,SKC,0.00,VWS V14.01,2013-10-22 17:08:00,
2013-10-22 12:13:00,38.1,32.2,29.91,NNW,336,1.0,6.0,79,0.00,,SKC,0.00,VWS V14.01,2013-10-22 17:13:00,
2013-10-22 12:18:00,38.2,32.6,29.91,NNW,342,0.0,7.0,80,0.00,,SKC,0.00,VWS V14.01,2013-10-22 17:18:00,
2013-10-22 12:23:00,38.2,33.2,29.91,NNW,342,0.0,7.0,82,0.00,,SKC,0.00,VWS V14.01,2013-10-22 17:23:00,
2013-10-22 12:28:00,38.3,33.3,29.91,NNW,342,4.0,7.0,82,0.00,,SKC,0.00,VWS V14.01,2013-10-22 17:28:00,
2013-10-22 12:30:00,37.4,32.1,29.91,NNW,337,1.0,4.0,81,0.00,,SKC,0.00,VWS V14.01,2013-10-22 17:30:00,
2013-10-22 12:33:00,38.7,33.1,29.91,NNW,342,2.0,2.0,80,0.00,,SKC,0.00,VWS V14.01,2013-10-22 17:33:00,
2013-10-22 12:38:00,38.9,32.6,29.91,NNW,342,0.0,5.0,78,0.00,,SKC,0.00,VWS V14.01,2013-10-22 17:38:00,
2013-10-22 12:43:00,39.0,32.4,29.91,NNW,342,2.0,5.0,77,0.00,,SKC,0.00,VWS V14.01,2013-10-22 17:43:00,
2013-10-22 12:48:00,39.2,32.3,29.91,NNW,342,0.0,5.0,76,0.00,,SKC,0.00,VWS V14.01,2013-10-22 17:48:00,
2013-10-22 12:53:00,39.5,31.9,29.90,North,351,0.0,6.0,74,0.00,,SKC,0.00,VWS V14.01,2013-10-22 17:53:00,
2013-10-22 12:58:00,39.7,32.4,29.90,North,355,0.0,6.0,75,0.00,,SKC,0.00,VWS V14.01,2013-10-22 17:58:00,
2013-10-22 13:00:00,38.0,32.1,29.91,NW,315,5.0,6.0,79,0.00,,SKC,0.00,VWS V14.01,2013-10-22 18:00:00,
2013-10-22 13:03:00,39.5,33.8,29.90,North,10,2.0,6.0,80,0.00,,SKC,0.00,VWS V14.01,2013-10-22 18:03:00,
2013-10-22 13:08:00,39.0,33.0,29.91,North,10,4.0,6.0,79,0.00,,SKC,0.00,VWS V14.01,2013-10-22 18:08:00,
2013-10-22 13:13:00,38.7,33.1,29.90,NNE,13,4.0,6.0,80,0.00,,SKC,0.00,VWS V14.01,2013-10-22 18:13:00,
2013-10-22 13:18:00,38.6,33.0,29.90,NNE,12,0.0,6.0,80,0.00,,SKC,0.00,VWS V14.01,2013-10-22 18:18:00,
2013-10-22 13:23:00,38.5,33.2,29.90,NNE,13,4.0,6.0,81,0.00,,SKC,0.00,VWS V14.01,2013-10-22 18:23:00,
2013-10-22 13:28:00,38.6,33.3,29.90,NNE,13,0.0,6.0,81,0.00,,SKC,0.00,VWS V14.01,2013-10-22 18:28:00,
2013-10-22 13:30:00,38.6,33.3,29.91,NNW,342,0.0,7.0,81,0.00,,SKC,0.00,VWS V14.01,2013-10-22 18:30:00,
2013-10-22 13:33:00,38.7,32.8,29.90,NNE,13,1.0,4.0,79,0.00,,SKC,0.00,VWS V14.01,2013-10-22 18:33:00,
2013-10-22 13:38:00,38.8,31.6,29.90,NNE,12,0.0,5.0,75,0.00,,SKC,0.00,VWS V14.01,2013-10-22 18:38:00,
2013-10-22 13:44:00,39.0,32.1,29.90,NNE,12,0.0,5.0,76,0.00,,SKC,0.00,VWS V14.01,2013-10-22 18:44:00,
2013-10-22 13:49:00,39.3,32.4,29.90,NNE,12,0.0,5.0,76,0.00,,SKC,0.00,VWS V14.01,2013-10-22 18:49:00,
2013-10-22 13:54:00,39.4,31.8,29.90,NNE,12,0.0,5.0,74,0.00,,SKC,0.00,VWS V14.01,2013-10-22 18:54:00,
2013-10-22 13:59:00,39.3,31.4,29.90,NNE,12,4.0,5.0,73,0.00,,SKC,0.00,VWS V14.01,2013-10-22 18:59:00,
2013-10-22 14:00:00,39.7,33.4,29.90,North,5,4.0,6.0,78,0.00,,SKC,0.00,VWS V14.01,2013-10-22 19:00:00,
2013-10-22 14:04:00,39.1,31.5,29.90,NNE,12,4.0,4.0,74,0.00,,SKC,0.00,VWS V14.01,2013-10-22 19:04:00,
2013-10-22 14:09:00,39.0,31.4,29.90,North,11,0.0,4.0,74,0.00,,SKC,0.00,VWS V14.01,2013-10-22 19:09:00,
2013-10-22 14:14:00,38.9,31.7,29.90,North,11,0.0,4.0,75,0.00,,SKC,0.00,VWS V14.01,2013-10-22 19:14:00,
2013-10-22 14:19:00,39.1,31.5,29.90,North,11,1.0,4.0,74,0.00,,SKC,0.00,VWS V14.01,2013-10-22 19:19:00,
2013-10-22 14:24:00,39.1,31.2,29.90,North,11,6.0,6.0,73,0.00,,SKC,0.00,VWS V14.01,2013-10-22 19:24:00,
2013-10-22 14:29:00,39.2,30.2,29.90,North,5,0.0,6.0,70,0.00,,SKC,0.00,VWS V14.01,2013-10-22 19:29:00,
2013-10-22 14:30:00,38.6,33.3,29.90,NNE,13,0.0,6.0,81,0.00,,SKC,0.00,VWS V14.01,2013-10-22 19:30:00,
2013-10-22 14:34:00,39.3,31.0,29.90,North,5,2.0,2.0,72,0.00,,SKC,0.00,VWS V14.01,2013-10-22 19:34:00,
2013-10-22 14:39:00,39.5,31.9,29.90,North,5,1.0,4.0,74,0.00,,SKC,0.00,VWS V14.01,2013-10-22 19:39:00,
2013-10-22 14:44:00,39.5,32.6,29.90,North,5,0.0,5.0,76,0.00,,SKC,0.00,VWS V14.01,2013-10-22 19:44:00,
2013-10-22 14:49:00,39.5,32.9,29.90,North,5,0.0,6.0,77,0.00,,SKC,0.00,VWS V14.01,2013-10-22 19:49:00,
2013-10-22 14:54:00,39.6,33.0,29.90,North,5,0.0,6.0,77,0.00,,SKC,0.00,VWS V14.01,2013-10-22 19:54:00,
2013-10-22 14:59:00,39.7,32.4,29.90,North,5,0.0,6.0,75,0.00,,SKC,0.00,VWS V14.01,2013-10-22 19:59:00,
2013-10-22 15:00:00,39.2,31.3,29.90,North,11,1.0,5.0,73,0.00,,SKC,0.00,VWS V14.01,2013-10-22 20:00:00,
2013-10-22 15:04:00,39.8,32.5,29.90,North,5,0.0,5.0,75,0.00,,SKC,0.00,VWS V14.01,2013-10-22 20:04:00,
2013-10-22 15:09:00,40.0,33.1,29.90,North,5,0.0,5.0,76,0.00,,SKC,0.00,VWS V14.01,2013-10-22 20:09:00,
2013-10-22 15:14:00,40.2,33.2,29.90,North,5,1.0,5.0,76,0.00,,SKC,0.00,VWS V14.01,2013-10-22 20:14:00,
2013-10-22 15:19:00,40.6,33.0,29.90,North,5,1.0,5.0,74,0.00,,SKC,0.00,VWS V14.01,2013-10-22 20:19:00,
2013-10-22 15:24:00,40.7,33.1,29.90,North,5,0.0,5.0,74,0.00,,SKC,0.00,VWS V14.01,2013-10-22 20:24:00,
2013-10-22 15:29:00,40.7,32.7,29.90,North,5,0.0,5.0,73,0.00,,SKC,0.00,VWS V14.01,2013-10-22 20:29:00,
2013-10-22 15:30:00,39.2,30.6,29.90,North,5,1.0,6.0,71,0.00,,SKC,0.00,VWS V14.01,2013-10-22 20:30:00,
2013-10-22 15:34:00,40.6,32.6,29.90,North,5,0.0,0.0,73,0.00,,SKC,0.00,VWS V14.01,2013-10-22 20:34:00,
2013-10-22 15:39:00,40.4,32.8,29.90,North,5,5.0,5.0,74,0.00,,SKC,0.00,VWS V14.01,2013-10-22 20:39:00,
2013-10-22 15:44:00,40.2,32.9,29.90,North,5,0.0,5.0,75,0.00,,SKC,0.00,VWS V14.01,2013-10-22 20:44:00,
2013-10-22 15:49:00,40.0,33.7,29.90,North,5,0.0,5.0,78,0.00,,SKC,0.00,VWS V14.01,2013-10-22 20:49:00,
2013-10-22 15:54:00,40.0,32.7,29.90,North,5,0.0,5.0,75,0.00,,SKC,0.00,VWS V14.01,2013-10-22 20:54:00,
2013-10-22 15:59:00,39.9,32.3,29.90,North,5,2.0,5.0,74,0.00,,SKC,0.00,VWS V14.01,2013-10-22 20:59:00,
2013-10-22 16:00:00,39.7,32.4,29.90,North,5,0.0,6.0,75,0.00,,SKC,0.00,VWS V14.01,2013-10-22 21:00:00,
2013-10-22 16:05:00,39.9,32.3,29.90,North,5,0.0,4.0,74,0.00,,SKC,0.00,VWS V14.01,2013-10-22 21:05:00,
2013-10-22 16:10:00,40.1,31.8,29.90,North,5,0.0,6.0,72,0.00,,SKC,0.00,VWS V14.01,2013-10-22 21:10:00,
2013-10-22 16:15:00,40.4,32.1,29.90,North,5,0.0,6.0,72,0.00,,SKC,0.00,VWS V14.01,2013-10-22 21:15:00,
2013-10-22 16:20:00,40.7,32.4,29.90,North,5,3.0,6.0,72,0.00,,SKC,0.00,VWS V14.01,2013-10-22 21:20:00,
2013-10-22 16:25:00,40.7,32.7,29.90,NNE,13,0.0,7.0,73,0.00,,SKC,0.00,VWS V14.01,2013-10-22 21:25:00,
2013-10-22 16:30:00,40.4,32.4,29.90,NNE,15,0.0,7.0,73,0.00,,SKC,0.00,VWS V14.01,2013-10-22 21:30:00,
2013-10-22 16:35:00,40.0,32.1,29.91,NNE,15,5.0,6.0,73,0.00,,SKC,0.00,VWS V14.01,2013-10-22 21:35:00,
2013-10-22 16:40:00,39.6,31.7,29.90,NE,40,0.0,7.0,73,0.00,,SKC,0.00,VWS V14.01,2013-10-22 21:40:00,
2013-10-22 16:45:00,39.4,31.8,29.91,NE,40,4.0,7.0,74,0.00,,SKC,0.00,VWS V14.01,2013-10-22 21:45:00,
2013-10-22 16:50:00,39.1,31.5,29.91,NE,41,5.0,7.0,74,0.00,,SKC,0.00,VWS V14.01,2013-10-22 21:50:00,
2013-10-22 16:55:00,38.9,31.0,29.91,NE,41,1.0,7.0,73,0.00,,SKC,0.00,VWS V14.01,2013-10-22 21:55:00,
2013-10-22 17:00:00,38.8,31.2,29.91,NE,41,2.0,7.0,74,0.00,,SKC,0.00,VWS V14.01,2013-10-22 22:00:00,
2013-10-22 17:05:00,38.7,31.5,29.92,NE,41,0.0,0.0,75,0.00,,SKC,0.00,VWS V14.01,2013-10-22 22:05:00,
2013-10-22 17:10:00,38.6,31.4,29.92,NE,41,0.0,1.0,75,0.00,,SKC,0.00,VWS V14.01,2013-10-22 22:10:00,
2013-10-22 17:15:00,38.6,31.0,29.92,NE,41,0.0,1.0,74,0.00,,SKC,0.00,VWS V14.01,2013-10-22 22:15:00,
2013-10-22 17:20:00,38.5,31.0,29.92,NE,41,0.0,1.0,74,0.00,,SKC,0.00,VWS V14.01,2013-10-22 22:20:00,
2013-10-22 17:25:00,38.5,31.0,29.92,NE,41,0.0,1.0,74,0.00,,SKC,0.00,VWS V14.01,2013-10-22 22:25:00,
2013-10-22 17:30:00,38.4,30.5,29.92,NE,41,0.0,1.0,73,0.00,,SKC,0.00,VWS V14.01,2013-10-22 22:30:00,
2013-10-22 17:35:00,38.4,30.5,29.92,NE,41,0.0,1.0,73,0.00,,SKC,0.00,VWS V14.01,2013-10-22 22:35:00,
2013-10-22 17:40:00,38.3,30.4,29.92,NE,41,0.0,1.0,73,0.00,,SKC,0.00,VWS V14.01,2013-10-22 22:40:00,
2013-10-22 17:45:00,38.2,30.3,29.92,NE,41,0.0,1.0,73,0.00,,SKC,0.00,VWS V14.01,2013-10-22 22:45:00,
2013-10-22 17:50:00,38.1,30.2,29.92,NE,41,0.0,1.0,73,0.00,,SKC,0.00,VWS V14.01,2013-10-22 22:50:00,
2013-10-22 17:55:00,37.9,30.0,29.92,NE,41,0.0,1.0,73,0.00,,SKC,0.00,VWS V14.01,2013-10-22 22:55:00,
2013-10-22 18:00:00,37.9,30.4,29.92,NE,41,2.0,5.0,74,0.00,,SKC,0.00,VWS V14.01,2013-10-22 23:00:00,
2013-10-22 18:05:00,37.8,30.3,29.92,NE,41,2.0,5.0,74,0.00,,SKC,0.00,VWS V14.01,2013-10-22 23:05:00,
2013-10-22 18:11:00,37.8,30.3,29.92,NE,41,2.0,5.0,74,0.00,,SKC,0.00,VWS V14.01,2013-10-22 23:11:00,
2013-10-22 18:16:00,37.7,30.5,29.92,NE,41,2.0,5.0,75,0.00,,SKC,0.00,VWS V14.01,2013-10-22 23:16:00,
2013-10-22 18:21:00,37.6,30.1,29.92,NE,41,5.0,5.0,74,0.00,,SKC,0.00,VWS V14.01,2013-10-22 23:21:00,
2013-10-22 18:26:00,37.5,29.6,29.92,NE,42,2.0,6.0,73,0.00,,SKC,0.00,VWS V14.01,2013-10-22 23:26:00,
2013-10-22 18:30:00,38.4,30.5,29.92,NE,41,0.0,1.0,73,0.00,,SKC,0.00,VWS V14.01,2013-10-22 23:30:00,
2013-10-22 18:31:00,37.5,30.0,29.92,NE,42,2.0,6.0,74,0.00,,SKC,0.00,VWS V14.01,2013-10-22 23:31:00,
2013-10-22 18:36:00,37.4,29.9,29.92,NE,42,2.0,5.0,74,0.00,,SKC,0.00,VWS V14.01,2013-10-22 23:36:00,
2013-10-22 18:41:00,37.3,29.5,29.92,NE,42,2.0,5.0,73,0.00,,SKC,0.00,VWS V14.01,2013-10-22 23:41:00,
2013-10-22 18:46:00,37.2,29.7,29.92,NE,42,3.0,6.0,74,0.00,,SKC,0.00,VWS V14.01,2013-10-22 23:46:00,
2013-10-22 18:51:00,37.2,29.7,29.92,NE,42,4.0,6.0,74,0.00,,SKC,0.00,VWS V14.01,2013-10-22 23:51:00,
2013-10-22 18:56:00,37.1,29.6,29.92,NE,43,4.0,7.0,74,0.00,,SKC,0.00,VWS V14.01,2013-10-22 23:56:00,
2013-10-22 19:00:00,37.9,30.4,29.92,NE,41,0.0,5.0,74,0.00,,SKC,0.00,VWS V14.01,2013-10-23 00:00:00,
2013-10-22 19:01:00,37.0,29.8,29.92,NE,42,4.0,4.0,75,0.00,,SKC,0.00,VWS V14.01,2013-10-23 00:01:00,
2013-10-22 19:06:00,36.9,30.0,29.92,NE,43,2.0,5.0,76,0.00,,SKC,0.00,VWS V14.01,2013-10-23 00:06:00,
2013-10-22 19:11:00,36.9,30.0,29.93,NE,43,4.0,5.0,76,0.00,,SKC,0.00,VWS V14.01,2013-10-23 00:11:00,
2013-10-22 19:16:00,36.8,30.0,29.93,NE,43,1.0,5.0,76,0.00,,SKC,0.00,VWS V14.01,2013-10-23 00:16:00,
2013-10-22 19:21:00,36.8,30.0,29.93,NE,43,1.0,5.0,76,0.00,,SKC,0.00,VWS V14.01,2013-10-23 00:21:00,
2013-10-22 19:26:00,36.7,29.9,29.93,NE,43,2.0,5.0,76,0.00,,SKC,0.00,VWS V14.01,2013-10-23 00:26:00,
2013-10-22 19:30:00,37.5,30.0,29.92,NE,42,3.0,6.0,74,0.00,,SKC,0.00,VWS V14.01,2013-10-23 00:30:00,
2013-10-22 19:31:00,36.6,29.8,29.93,NE,43,2.0,4.0,76,0.00,,SKC,0.00,VWS V14.01,2013-10-23 00:31:00,
2013-10-22 19:36:00,36.6,29.8,29.93,NE,43,4.0,5.0,76,0.00,,SKC,0.00,VWS V14.01,2013-10-23 00:36:00,
2013-10-22 19:41:00,36.4,29.6,29.93,NE,43,2.0,5.0,76,0.00,,SKC,0.00,VWS V14.01,2013-10-23 00:41:00,
2013-10-22 19:46:00,36.4,29.9,29.93,NE,43,2.0,6.0,77,0.00,,SKC,0.00,VWS V14.01,2013-10-23 00:46:00,
2013-10-22 19:51:00,36.3,29.5,29.93,NE,44,5.0,7.0,76,0.00,,SKC,0.00,VWS V14.01,2013-10-23 00:51:00,
2013-10-22 19:57:00,36.1,29.6,29.93,NE,45,5.0,7.0,77,0.00,,SKC,0.00,VWS V14.01,2013-10-23 00:57:00,
2013-10-22 20:00:00,37.0,29.8,29.92,NE,43,4.0,7.0,75,0.00,,SKC,0.00,VWS V14.01,2013-10-23 01:00:00,
2013-10-22 20:02:00,35.9,29.1,29.93,NE,52,1.0,9.0,76,0.00,,SKC,0.00,VWS V14.01,2013-10-23 01:02:00,
2013-10-22 20:07:00,35.8,28.7,29.93,NE,52,6.0,9.0,75,0.00,,SKC,0.00,VWS V14.01,2013-10-23 01:07:00,
2013-10-22 20:12:00,35.7,28.9,29.93,NE,52,0.0,9.0,76,0.00,,SKC,0.00,VWS V14.01,2013-10-23 01:12:00,
2013-10-22 20:17:00,35.6,28.8,29.94,NE,52,1.0,9.0,76,0.00,,SKC,0.00,VWS V14.01,2013-10-23 01:17:00,
2013-10-22 20:22:00,35.5,28.7,29.94,NE,52,0.0,9.0,76,0.00,,SKC,0.00,VWS V14.01,2013-10-23 01:22:00,
2013-10-22 20:27:00,35.4,28.6,29.94,NE,52,1.0,9.0,76,0.00,,SKC,0.00,VWS V14.01,2013-10-23 01:27:00,
2013-10-22 20:30:00,36.6,29.8,29.93,NE,43,2.0,6.0,76,0.00,,SKC,0.00,VWS V14.01,2013-10-23 01:30:00,
2013-10-22 20:32:00,35.4,28.6,29.94,NE,52,0.0,2.0,76,0.00,,SKC,0.00,VWS V14.01,2013-10-23 01:32:00,
2013-10-22 20:37:00,35.3,28.2,29.94,NE,52,0.0,4.0,75,0.00,,SKC,0.00,VWS V14.01,2013-10-23 01:37:00,
2013-10-22 20:42:00,35.2,28.1,29.94,NE,52,0.0,4.0,75,0.00,,SKC,0.00,VWS V14.01,2013-10-23 01:42:00,
2013-10-22 20:47:00,35.1,28.0,29.94,NE,52,0.0,4.0,75,0.00,,SKC,0.00,VWS V14.01,2013-10-23 01:47:00,
2013-10-22 20:52:00,35.0,27.9,29.94,NE,52,0.0,4.0,75,0.00,,SKC,0.00,VWS V14.01,2013-10-23 01:52:00,
2013-10-22 20:57:00,34.8,28.0,29.94,NE,52,0.0,4.0,76,0.00,,SKC,0.00,VWS V14.01,2013-10-23 01:57:00,
2013-10-22 21:00:00,35.9,29.1,29.93,NE,49,8.0,8.0,76,0.00,,SKC,0.00,VWS V14.01,2013-10-23 02:00:00,
2013-10-22 21:02:00,34.6,27.8,29.94,NE,52,1.0,4.0,76,0.00,,SKC,0.00,VWS V14.01,2013-10-23 02:02:00,
2013-10-22 21:07:00,34.5,28.0,29.93,NE,52,3.0,6.0,77,0.00,,SKC,0.00,VWS V14.01,2013-10-23 02:07:00,
2013-10-22 21:12:00,34.5,27.7,29.93,NE,52,4.0,6.0,76,0.00,,SKC,0.00,VWS V14.01,2013-10-23 02:12:00,
2013-10-22 21:17:00,34.5,27.7,29.93,NE,52,5.0,6.0,76,0.00,,SKC,0.00,VWS V14.01,2013-10-23 02:17:00,
2013-10-22 21:22:00,34.5,28.0,29.93,NE,52,4.0,6.0,77,0.00,,SKC,0.00,VWS V14.01,2013-10-23 02:22:00,
2013-10-22 21:27:00,34.5,27.7,29.93,NE,52,0.0,6.0,76,0.00,,SKC,0.00,VWS V14.01,2013-10-23 02:27:00,
2013-10-22 21:30:00,35.4,28.6,29.94,NE,52,0.0,9.0,76,0.00,,SKC,0.00,VWS V14.01,2013-10-23 02:30:00,
2013-10-22 21:32:00,34.4,27.6,29.94,NE,52,3.0,6.0,76,0.00,,SKC,0.00,VWS V14.01,2013-10-23 02:32:00,
2013-10-22 21:37:00,34.4,27.6,29.94,NE,52,0.0,6.0,76,0.00,,SKC,0.00,VWS V14.01,2013-10-23 02:37:00,
2013-10-22 21:42:00,34.4,27.6,29.94,NE,52,0.0,6.0,76,0.00,,SKC,0.00,VWS V14.01,2013-10-23 02:42:00,
2013-10-22 21:47:00,34.4,27.6,29.94,NE,52,0.0,6.0,76,0.00,,SKC,0.00,VWS V14.01,2013-10-23 02:47:00,
2013-10-22 21:52:00,34.4,27.6,29.94,NE,52,0.0,6.0,76,0.00,,SKC,0.00,VWS V14.01,2013-10-23 02:52:00,
2013-10-22 21:57:00,34.4,27.6,29.93,NE,52,4.0,6.0,76,0.00,,SKC,0.00,VWS V14.01,2013-10-23 02:57:00,
2013-10-22 22:00:00,34.7,27.9,29.94,NE,52,2.0,4.0,76,0.00,,SKC,0.00,VWS V14.01,2013-10-23 03:00:00,
2013-10-22 22:02:00,34.4,28.0,29.93,NE,52,0.0,5.0,77,0.00,,SKC,0.00,VWS V14.01,2013-10-23 03:02:00,
2013-10-22 22:08:00,34.4,28.3,29.94,NE,52,0.0,5.0,78,0.00,,SKC,0.00,VWS V14.01,2013-10-23 03:08:00,
2013-10-22 22:13:00,34.3,27.5,29.93,NE,52,0.0,5.0,76,0.00,,SKC,0.00,VWS V14.01,2013-10-23 03:13:00,
2013-10-22 22:18:00,34.2,27.4,29.93,NE,52,0.0,5.0,76,0.00,,SKC,0.00,VWS V14.01,2013-10-23 03:18:00,
2013-10-22 22:23:00,34.3,28.2,29.93,NE,52,0.0,5.0,78,0.00,,SKC,0.00,VWS V14.01,2013-10-23 03:23:00,
2013-10-22 22:28:00,34.3,27.5,29.93,NE,52,0.0,5.0,76,0.00,,SKC,0.00,VWS V14.01,2013-10-23 03:28:00,
2013-10-22 22:30:00,34.4,27.6,29.94,NE,52,6.0,6.0,76,0.00,,SKC,0.00,VWS V14.01,2013-10-23 03:30:00,
2013-10-22 22:33:00,34.0,27.9,29.93,NE,52,0.0,0.0,78,0.00,,SKC,0.00,VWS V14.01,2013-10-23 03:33:00,
2013-10-22 22:38:00,33.7,27.9,29.93,NE,52,0.0,0.0,79,0.00,,SKC,0.00,VWS V14.01,2013-10-23 03:38:00,
2013-10-22 22:43:00,33.5,28.0,29.93,NE,52,0.0,0.0,80,0.00,,SKC,0.00,VWS V14.01,2013-10-23 03:43:00,
2013-10-22 22:48:00,33.4,28.2,29.93,NE,52,0.0,0.0,81,0.00,,SKC,0.00,VWS V14.01,2013-10-23 03:48:00,
2013-10-22 22:53:00,33.2,27.7,29.93,NE,52,0.0,0.0,80,0.00,,SKC,0.00,VWS V14.01,2013-10-23 03:53:00,
2013-10-22 22:58:00,33.2,28.0,29.93,NE,52,0.0,0.0,81,0.00,,SKC,0.00,VWS V14.01,2013-10-23 03:58:00,
2013-10-22 23:00:00,34.4,28.0,29.93,NE,52,0.0,6.0,77,0.00,,SKC,0.00,VWS V14.01,2013-10-23 04:00:00,
2013-10-22 23:01:00,33.1,27.6,29.93,NE,52,0.0,0.0,80,0.00,,SKC,0.00,VWS V14.01,2013-10-23 04:01:00,
2013-10-22 23:02:00,33.1,27.6,29.93,NE,52,0.0,0.0,80,0.00,,SKC,0.00,VWS V14.01,2013-10-23 04:02:00,
2013-10-22 23:03:00,33.1,27.6,29.93,NE,52,0.0,0.0,80,0.00,,SKC,0.00,VWS V14.01,2013-10-23 04:03:00,
2013-10-22 23:07:00,33.1,27.6,29.93,NE,52,0.0,0.0,80,0.00,,SKC,0.00,VWS V14.01,2013-10-23 04:07:00,
2013-10-22 23:12:00,33.1,27.6,29.93,NE,52,0.0,0.0,80,0.00,,SKC,0.00,VWS V14.01,2013-10-23 04:12:00,
2013-10-22 23:13:00,33.1,27.6,29.93,NE,52,0.0,0.0,80,0.00,,SKC,0.00,VWS V14.01,2013-10-23 04:13:00,
2013-10-22 23:18:00,33.1,27.9,29.93,NE,52,0.0,0.0,81,0.00,,SKC,0.00,VWS V14.01,2013-10-23 04:18:00,
2013-10-22 23:23:00,33.1,27.9,29.93,NE,52,0.0,0.0,81,0.00,,SKC,0.00,VWS V14.01,2013-10-23 04:23:00,
2013-10-22 23:28:00,33.1,27.6,29.93,NE,52,0.0,0.0,80,0.00,,SKC,0.00,VWS V14.01,2013-10-23 04:28:00,
2013-10-22 23:30:00,34.1,28.0,29.93,NE,52,0.0,5.0,78,0.00,,SKC,0.00,VWS V14.01,2013-10-23 04:30:00,
2013-10-22 23:33:00,33.2,28.0,29.92,NE,52,0.0,0.0,81,0.00,,SKC,0.00,VWS V14.01,2013-10-23 04:33:00,
2013-10-22 23:39:00,33.2,28.3,29.92,NE,52,0.0,0.0,82,0.00,,SKC,0.00,VWS V14.01,2013-10-23 04:39:00,
2013-10-22 23:44:00,33.1,28.5,29.92,NE,52,0.0,0.0,83,0.00,,SKC,0.00,VWS V14.01,2013-10-23 04:44:00,
2013-10-22 23:49:00,33.0,28.7,29.92,NE,52,0.0,0.0,84,0.00,,SKC,0.00,VWS V14.01,2013-10-23 04:49:00,
2013-10-22 23:54:00,32.9,28.6,29.92,NE,52,0.0,0.0,84,0.00,,SKC,0.00,VWS V14.01,2013-10-23 04:54:00,
2013-10-22 23:59:00,32.8,28.8,29.92,NE,52,0.0,1.0,85,0.00,,SKC,0.00,VWS V14.01,2013-10-23 04:59:00,